createdAt,value
2019-02-23T00:04:50.720Z,71.06
2019-02-23T00:10:57.319Z,71.14
2019-02-23T00:17:03.086Z,71.15
2019-02-23T00:23:08.942Z,71.08
2019-02-23T00:29:14.965Z,71.00
2019-02-23T00:35:21.329Z,71.14
2019-02-23T00:41:27.080Z,71.07
2019-02-23T00:47:33.138Z,71.08
2019-02-23T00:53:38.969Z,71.31
2019-02-23T00:59:44.726Z,71.47
2019-02-23T01:05:50.640Z,71.60
2019-02-23T01:11:56.552Z,71.58
2019-02-23T01:18:02.565Z,71.56
2019-02-23T01:24:08.509Z,71.64
2019-02-23T01:30:15.068Z,71.82
2019-02-23T01:36:20.886Z,71.90
2019-02-23T01:42:27.041Z,71.94
2019-02-23T01:48:32.935Z,72.05
2019-02-23T01:54:38.924Z,71.98
2019-02-23T02:00:44.677Z,72.09
2019-02-23T02:06:50.602Z,72.18
2019-02-23T02:12:56.565Z,72.27
2019-02-23T02:19:02.694Z,72.29
2019-02-23T02:25:09.310Z,72.24
2019-02-23T02:31:15.345Z,72.32
2019-02-23T02:37:21.621Z,72.15
2019-02-23T02:43:27.516Z,71.89
2019-02-23T02:49:33.630Z,71.76
2019-02-23T02:55:39.531Z,72.15
2019-02-23T03:01:45.695Z,72.14
2019-02-23T03:07:51.505Z,72.47
2019-02-23T03:13:57.284Z,72.38
2019-02-23T03:20:03.256Z,72.10
2019-02-23T03:26:09.405Z,70.43
2019-02-23T03:32:15.450Z,70.78
2019-02-23T03:38:21.332Z,71.12
2019-02-23T03:44:27.213Z,71.09
2019-02-23T03:50:32.969Z,70.88
2019-02-23T03:56:39.258Z,71.18
2019-02-23T04:02:45.082Z,71.39
2019-02-23T04:08:50.979Z,71.51
2019-02-23T04:14:56.872Z,71.32
2019-02-23T04:21:02.797Z,71.67
2019-02-23T04:27:09.062Z,71.92
2019-02-23T04:33:14.805Z,72.24
2019-02-23T04:39:20.543Z,72.57
2019-02-23T04:45:26.378Z,72.20
2019-02-23T04:51:32.244Z,72.40
2019-02-23T04:57:38.064Z,72.72
2019-02-23T05:03:46.283Z,72.68
2019-02-23T05:09:52.050Z,72.89
2019-02-23T05:15:57.822Z,72.46
2019-02-23T05:22:03.681Z,72.53
2019-02-23T05:28:09.867Z,72.57
2019-02-23T05:34:15.901Z,72.83
2019-02-23T05:40:21.692Z,72.73
2019-02-23T05:46:27.884Z,72.86
2019-02-23T05:52:34.107Z,72.72
2019-02-23T05:58:40.121Z,72.36
2019-02-23T06:04:46.692Z,72.25
2019-02-23T06:10:53.284Z,71.89
2019-02-23T06:16:59.112Z,71.70
2019-02-23T06:23:05.613Z,71.84
2019-02-23T06:29:11.592Z,71.97
2019-02-23T06:35:18.057Z,72.10
2019-02-23T06:41:24.412Z,72.14
2019-02-23T06:47:32.074Z,71.49
2019-02-23T06:53:38.175Z,71.52
2019-02-23T06:59:44.369Z,71.63
2019-02-23T07:05:50.938Z,71.55
2019-02-23T07:11:56.829Z,71.65
2019-02-23T07:18:03.179Z,71.62
2019-02-23T07:24:09.722Z,71.87
2019-02-23T07:30:15.746Z,72.20
2019-02-23T07:36:21.646Z,72.24
2019-02-23T07:42:27.862Z,72.28
2019-02-23T07:48:34.060Z,72.51
2019-02-23T07:54:39.927Z,72.55
2019-02-23T08:00:45.726Z,72.49
2019-02-23T08:06:51.919Z,72.51
2019-02-23T08:12:58.451Z,72.72
2019-02-23T08:19:04.699Z,72.69
2019-02-23T08:25:11.418Z,72.63
2019-02-23T08:31:22.011Z,72.67
2019-02-23T08:37:28.219Z,73.44
2019-02-23T08:43:34.605Z,73.78
2019-02-23T08:49:40.466Z,73.65
2019-02-23T08:55:47.151Z,72.45
2019-02-23T09:01:53.342Z,70.93
2019-02-23T09:07:59.355Z,69.73
2019-02-23T09:14:05.167Z,68.28
2019-02-23T09:20:12.146Z,66.61
2019-02-23T09:26:18.381Z,65.60
2019-02-23T09:32:24.468Z,63.72
2019-02-23T09:38:30.567Z,62.91
2019-02-23T09:44:36.753Z,61.93
2019-02-23T09:50:42.527Z,61.68
2019-02-23T09:56:48.413Z,61.09
2019-02-23T10:02:54.372Z,59.74
2019-02-23T10:09:00.152Z,58.64
2019-02-23T10:15:06.769Z,58.88
2019-02-23T10:21:12.637Z,58.34
2019-02-23T10:27:18.831Z,57.25
2019-02-23T10:33:24.770Z,56.07
2019-02-23T10:39:30.915Z,56.78
2019-02-23T10:45:36.955Z,54.99
2019-02-23T10:51:42.838Z,52.70
2019-02-23T10:57:48.834Z,53.16
2019-02-23T11:03:54.603Z,51.94
2019-02-23T11:10:00.449Z,52.40
2019-02-23T11:16:06.368Z,50.73
2019-02-23T11:22:12.542Z,50.27
2019-02-23T11:28:18.627Z,49.01
2019-02-23T11:34:24.853Z,46.85
2019-02-23T11:40:30.878Z,46.07
2019-02-23T11:46:36.777Z,44.59
2019-02-23T11:52:43.751Z,44.45
2019-02-23T11:58:49.710Z,43.07
2019-02-23T12:04:55.493Z,42.18
2019-02-23T12:11:01.282Z,41.43
2019-02-23T12:17:07.073Z,41.02
2019-02-23T12:23:12.813Z,40.45
2019-02-23T12:29:18.705Z,39.60
2019-02-23T12:35:24.523Z,40.33
2019-02-23T12:41:30.399Z,38.96
2019-02-23T12:47:36.534Z,37.61
2019-02-23T12:53:42.384Z,37.48
2019-02-23T12:59:48.185Z,36.52
2019-02-23T13:05:53.983Z,36.09
2019-02-23T13:12:29.781Z,35.88
2019-02-23T13:19:30.957Z,36.28
2019-02-23T13:25:56.085Z,36.22
2019-02-23T13:32:49.554Z,33.74
2019-02-23T13:39:29.791Z,33.37
2019-02-23T13:46:12.535Z,34.08
2019-02-23T13:53:27.195Z,34.03
2019-02-23T14:00:16.404Z,34.11
2019-02-23T14:07:10.323Z,32.69
2019-02-23T14:14:17.978Z,32.51
2019-02-23T14:21:18.365Z,30.79
2019-02-23T14:28:27.658Z,31.81
2019-02-23T14:35:49.961Z,30.97
2019-02-23T14:42:32.553Z,30.19
2019-02-23T14:49:08.266Z,30.60
2019-02-23T14:56:08.494Z,30.35
2019-02-23T15:02:58.958Z,30.19
2019-02-23T15:09:49.379Z,29.72
2019-02-23T15:17:25.120Z,29.93
2019-02-23T15:24:05.625Z,29.83
2019-02-23T15:31:00.422Z,30.32
2019-02-23T15:38:16.406Z,30.24
2019-02-23T15:45:20.827Z,30.12
2019-02-23T15:51:26.720Z,30.51
2019-02-23T15:57:32.576Z,30.21
2019-02-23T16:03:38.368Z,29.85
2019-02-23T16:09:44.369Z,29.53
2019-02-23T16:15:50.258Z,30.02
2019-02-23T16:21:56.099Z,30.53
2019-02-23T16:28:02.163Z,31.22
2019-02-23T16:34:08.082Z,31.45
2019-02-23T16:40:14.327Z,31.89
2019-02-23T16:46:20.078Z,32.16
2019-02-23T16:52:26.279Z,32.58
2019-02-23T16:58:32.204Z,33.04
2019-02-23T17:04:38.352Z,33.68
2019-02-23T17:10:44.620Z,35.26
2019-02-23T17:16:50.379Z,35.37
2019-02-23T17:22:56.202Z,35.97
2019-02-23T17:29:02.084Z,36.91
2019-02-23T17:35:08.578Z,38.41
2019-02-23T17:41:14.479Z,39.11
2019-02-23T17:47:20.475Z,39.26
2019-02-23T17:53:26.926Z,39.27
2019-02-23T17:59:32.770Z,39.72
2019-02-23T18:05:38.728Z,40.37
2019-02-23T18:11:44.642Z,40.81
2019-02-23T18:17:50.740Z,41.54
2019-02-23T18:23:56.700Z,41.79
2019-02-23T18:30:10.690Z,42.09
2019-02-23T18:36:10.183Z,42.79
2019-02-23T18:42:16.345Z,43.23
2019-02-23T18:48:22.744Z,44.00
2019-02-23T18:54:28.650Z,44.36
2019-02-23T19:00:36.514Z,45.12
2019-02-23T19:06:42.488Z,45.77
2019-02-23T19:12:48.381Z,46.55
2019-02-23T19:18:55.054Z,47.21
2019-02-23T19:25:01.344Z,48.68
2019-02-23T19:31:08.163Z,49.58
2019-02-23T19:37:14.280Z,49.61
2019-02-23T19:43:20.029Z,50.08
2019-02-23T19:49:25.920Z,50.46
2019-02-23T19:55:32.676Z,50.48
2019-02-23T20:01:39.105Z,51.05
2019-02-23T20:07:45.178Z,51.80
2019-02-23T20:13:51.043Z,51.86
2019-02-23T20:19:56.944Z,51.71
2019-02-23T20:26:03.968Z,51.73
2019-02-23T20:32:09.799Z,51.09
2019-02-23T20:38:15.602Z,50.37
2019-02-23T20:44:21.415Z,50.35
2019-02-23T20:50:27.297Z,49.42
2019-02-23T20:56:33.086Z,48.01
2019-02-23T21:02:39.114Z,46.26
2019-02-23T21:08:45.015Z,45.70
2019-02-23T21:14:51.062Z,44.50
2019-02-23T21:20:57.071Z,43.97
2019-02-23T21:27:03.292Z,43.21
2019-02-23T21:33:09.209Z,42.05
2019-02-23T21:39:15.043Z,41.67
2019-02-23T21:45:20.845Z,41.49
2019-02-23T21:51:26.675Z,41.74
2019-02-23T21:57:32.510Z,42.00
2019-02-23T22:03:38.636Z,41.79
2019-02-23T22:09:44.473Z,41.48
2019-02-23T22:15:50.542Z,41.27
2019-02-23T22:21:56.465Z,41.20
2019-02-23T22:28:02.634Z,40.95
2019-02-23T22:34:08.853Z,41.09
2019-02-23T22:40:14.705Z,40.92
2019-02-23T22:46:20.745Z,41.07
2019-02-23T22:52:26.693Z,41.23
2019-02-23T22:58:32.486Z,40.86
2019-02-23T23:04:38.528Z,40.54
2019-02-23T23:10:44.781Z,40.32
2019-02-23T23:16:50.745Z,40.00
2019-02-23T23:22:56.691Z,39.72
2019-02-23T23:29:02.865Z,39.53
2019-02-23T23:35:08.894Z,39.18
2019-02-23T23:41:14.957Z,39.22
2019-02-23T23:47:21.000Z,38.78
2019-02-23T23:53:26.732Z,38.49
2019-02-23T23:59:32.810Z,38.47
